Time;durP1;ratioP1;P1;durP2;ratioP2;P2;SDS_P1;SDS_P2;PMS_P1;PMS_P2;Temp;Humidity;BMP_temperature;BMP_pressure;BME280_temperature;BME280_humidity;BME280_pressure;Samples;Min_cycle;Max_cycle;Signal;HPM_P1;HPM_P2
2023/03/02 00:00:24;;;;;;;32.60;11.73;;;;;;;-0.71;100.00;102459.75;7394462;19;20164;-41
2023/03/02 00:02:54;;;;;;;34.17;10.70;;;;;;;-0.72;100.00;102447.81;7389787;19;20194;-40
2023/03/02 00:05:24;;;;;;;17.77;8.13;;;;;;;-0.66;100.00;102449.25;7392764;19;20484;-40
2023/03/02 00:07:53;;;;;;;19.42;7.22;;;;;;;-0.75;100.00;102452.53;7389470;19;20665;-41
2023/03/02 00:10:25;;;;;;;16.25;7.28;;;;;;;-0.74;100.00;102439.13;7390124;19;20135;-41
2023/03/02 00:12:55;;;;;;;12.55;6.53;;;;;;;-0.79;100.00;102437.69;7388561;19;20209;-43
2023/03/02 00:15:24;;;;;;;55.20;19.85;;;;;;;-0.77;100.00;102443.84;7392625;19;20141;-40
2023/03/02 00:17:54;;;;;;;18.60;7.57;;;;;;;-0.87;100.00;102443.53;7388798;19;20222;-42
2023/03/02 00:20:23;;;;;;;14.90;6.13;;;;;;;-0.92;100.00;102440.44;7392513;19;20662;-43
2023/03/02 00:22:53;;;;;;;17.95;6.32;;;;;;;-0.97;100.00;102434.84;7390136;19;20191;-41
2023/03/02 00:25:22;;;;;;;17.90;6.60;;;;;;;-0.93;100.00;102440.28;7392310;19;20127;-42
2023/03/02 00:27:54;;;;;;;13.95;6.65;;;;;;;-0.97;100.00;102429.78;7380988;19;20201;-42
2023/03/02 00:30:24;;;;;;;16.58;7.95;;;;;;;-0.91;100.00;102428.69;7390440;19;20130;-43
2023/03/02 00:32:53;;;;;;;14.23;7.18;;;;;;;-0.96;100.00;102426.50;7390192;19;20198;-40
2023/03/02 00:35:23;;;;;;;22.27;7.10;;;;;;;-0.97;100.00;102424.72;7391819;19;20127;-43
2023/03/02 00:37:52;;;;;;;14.82;6.45;;;;;;;-0.91;100.00;102431.22;7388725;19;20198;-43
2023/03/02 00:40:22;;;;;;;15.88;7.22;;;;;;;-0.86;100.00;102423.41;7391973;19;20586;-41
2023/03/02 00:42:51;;;;;;;14.63;7.03;;;;;;;-0.80;100.00;102420.69;7389422;19;20189;-40
2023/03/02 00:45:23;;;;;;;12.65;6.65;;;;;;;-0.84;100.00;102418.53;7391449;19;20230;-43
2023/03/02 00:47:53;;;;;;;15.73;7.80;;;;;;;-0.85;100.00;102424.31;7387759;19;20190;-42
2023/03/02 00:50:22;;;;;;;19.80;7.50;;;;;;;-0.84;100.00;102428.66;7390084;19;20129;-40
2023/03/02 00:52:51;;;;;;;19.63;7.85;;;;;;;-0.82;100.00;102417.09;7388880;19;20191;-40
2023/03/02 00:55:21;;;;;;;18.38;7.68;;;;;;;-0.85;100.00;102424.31;7391069;19;20130;-42
2023/03/02 00:57:54;;;;;;;17.33;8.10;;;;;;;-0.82;100.00;102420.50;7387708;19;20658;-42
2023/03/02 01:00:28;;;;;;;22.77;8.25;;;;;;;-0.76;100.00;102410.19;7392568;19;20138;-42
2023/03/02 01:02:58;;;;;;;16.42;7.95;;;;;;;-0.77;100.00;102415.94;7389116;19;20221;-40
2023/03/02 01:05:28;;;;;;;19.95;7.57;;;;;;;-0.78;100.00;102415.81;7391238;19;20133;-42
2023/03/02 01:07:57;;;;;;;23.50;8.27;;;;;;;-0.84;100.00;102406.75;7386860;19;20420;-42
2023/03/02 01:10:26;;;;;;;16.85;8.68;;;;;;;-0.82;100.00;102409.47;7390129;19;20130;-40
2023/03/02 01:12:56;;;;;;;20.05;8.55;;;;;;;-0.82;100.00;102401.88;7388890;19;20194;-40
2023/03/02 01:15:28;;;;;;;19.42;8.15;;;;;;;-0.75;100.00;102399.31;7390909;19;20127;-42
2023/03/02 01:17:58;;;;;;;18.55;8.38;;;;;;;-0.72;100.00;102411.44;7386606;19;20190;-40
2023/03/02 01:20:27;;;;;;;19.05;7.93;;;;;;;-0.79;100.00;102396.22;7390534;19;20158;-43
2023/03/02 01:22:57;;;;;;;19.88;8.60;;;;;;;-0.85;100.00;102394.81;7385345;19;20210;-40
2023/03/02 01:25:26;;;;;;;17.35;7.93;;;;;;;-0.88;100.00;102403.72;7390557;19;20143;-44
2023/03/02 01:27:57;;;;;;;17.38;8.38;;;;;;;-0.80;100.00;102404.56;7382231;19;20207;-45
2023/03/02 01:30:29;;;;;;;22.38;8.35;;;;;;;-0.75;100.00;102399.31;7391530;19;20129;-42
2023/03/02 01:32:58;;;;;;;20.83;8.98;;;;;;;-0.80;100.00;102404.56;7389777;19;20188;-41
2023/03/02 01:35:27;;;;;;;19.67;7.50;;;;;;;-0.88;100.00;102399.53;7391060;19;20154;-43
2023/03/02 01:37:57;;;;;;;24.92;8.57;;;;;;;-0.93;100.00;102394.66;7385933;19;20261;-41
2023/03/02 01:40:26;;;;;;;21.02;9.43;;;;;;;-0.88;100.00;102396.09;7390645;19;20772;-40
2023/03/02 01:43:01;;;;;;;16.60;7.60;;;;;;;-0.86;100.00;102397.19;7386883;19;20198;-42
2023/03/02 01:45:55;;;;;;;16.38;7.07;;;;;;;-0.90;100.00;102389.94;7389859;19;20138;-40
2023/03/02 01:48:29;;;;;;;16.02;7.97;;;;;;;-0.96;100.00;102378.38;7385088;19;20201;-40
2023/03/02 01:51:00;;;;;;;15.90;7.80;;;;;;;-0.96;100.00;102375.84;7389441;19;20177;-46
2023/03/02 01:53:31;;;;;;;16.63;7.75;;;;;;;-0.90;100.00;102365.50;7386467;19;20208;-40
2023/03/02 01:56:01;;;;;;;39.50;11.95;;;;;;;-0.88;100.00;102368.22;7389638;19;20119;-41
2023/03/02 01:58:34;;;;;;;18.90;8.65;;;;;;;-0.91;100.00;102370.41;7384692;19;20201;-41
2023/03/02 02:01:14;;;;;;;17.55;8.95;;;;;;;-0.96;100.00;102374.94;7394088;19;20152;-40
2023/03/02 02:03:44;;;;;;;29.67;9.80;;;;;;;-0.89;100.00;102377.44;7387139;19;20653;-41
2023/03/02 02:06:18;;;;;;;21.67;8.85;;;;;;;-1.00;100.00;102371.16;7389571;19;20135;-40
2023/03/02 02:08:48;;;;;;;15.38;7.35;;;;;;;-0.99;100.00;102374.56;7385664;19;20657;-41
2023/03/02 02:11:17;;;;;;;16.52;7.63;;;;;;;-0.95;100.00;102369.16;7387534;19;20135;-42
2023/03/02 02:13:47;;;;;;;14.98;7.13;;;;;;;-0.99;100.00;102360.28;7386189;19;20273;-40
2023/03/02 02:16:19;;;;;;;16.95;7.50;;;;;;;-1.00;100.00;102363.56;7389122;19;20155;-40
2023/03/02 02:18:49;;;;;;;19.10;8.90;;;;;;;-0.98;100.00;102367.16;7384939;19;20225;-41
2023/03/02 02:21:19;;;;;;;18.40;8.80;;;;;;;-1.06;100.00;102367.94;7388984;19;20131;-44
2023/03/02 02:23:55;;;;;;;18.63;8.82;;;;;;;-1.04;100.00;102366.47;7386481;19;20551;-41
2023/03/02 02:26:29;;;;;;;20.45;7.82;;;;;;;-1.06;100.00;102373.00;7389212;19;20201;-42
2023/03/02 02:29:02;;;;;;;18.25;8.23;;;;;;;-1.02;100.00;102370.06;7380111;19;20201;-41
2023/03/02 02:31:36;;;;;;;20.25;7.72;;;;;;;-1.10;100.00;102360.69;7387227;19;20131;-40
2023/03/02 02:34:12;;;;;;;24.13;8.20;;;;;;;-1.12;100.00;102362.16;7386341;19;20203;-40
2023/03/02 02:36:45;;;;;;;18.27;9.13;;;;;;;-1.15;100.00;102359.25;7396181;19;20136;-41
2023/03/02 02:39:20;;;;;;;20.35;8.60;;;;;;;-1.09;100.00;102365.03;7390288;19;20555;-39
2023/03/02 02:41:53;;;;;;;16.42;8.60;;;;;;;-1.11;100.00;102358.88;7396161;19;20165;-42
2023/03/02 02:44:22;;;;;;;16.50;7.90;;;;;;;-1.04;100.00;102356.31;7395197;19;20185;-43
2023/03/02 02:46:52;;;;;;;20.02;8.15;;;;;;;-1.14;100.00;102358.53;7394929;19;20163;-43
2023/03/02 02:49:31;;;;;;;21.88;9.50;;;;;;;-1.11;100.00;102358.88;7391143;19;20834;-42
2023/03/02 02:52:00;;;;;;;36.97;9.00;;;;;;;-1.28;100.00;102355.31;7390633;19;20603;-41
2023/03/02 02:54:30;;;;;;;16.70;7.68;;;;;;;-1.28;100.00;102351.91;7395300;19;20170;-41
2023/03/02 02:57:04;;;;;;;19.42;7.20;;;;;;;-1.30;100.00;102361.84;7393946;19;20127;-42
2023/03/02 02:59:35;;;;;;;14.88;7.28;;;;;;;-1.32;100.00;102352.25;7393343;19;20170;-41
2023/03/02 03:02:05;;;;;;;60.33;15.27;;;;;;;-1.39;100.00;102350.66;7393277;19;20142;-40
2023/03/02 03:04:34;;;;;;;36.80;8.80;;;;;;;-1.39;100.00;102355.72;7395809;19;20148;-40
2023/03/02 03:07:05;;;;;;;22.52;8.77;;;;;;;-1.38;100.00;102362.59;7395223;19;20744;-40
2023/03/02 03:09:35;;;;;;;42.38;13.85;;;;;;;-1.44;100.00;102361.88;7397930;19;20170;-41
2023/03/02 03:12:13;;;;;;;19.83;7.47;;;;;;;-1.40;100.00;102358.97;7391505;19;20131;-40
2023/03/02 03:14:43;;;;;;;35.28;8.30;;;;;;;-1.50;100.00;102357.91;7396099;19;20155;-41
2023/03/02 03:17:13;;;;;;;16.05;7.25;;;;;;;-1.55;100.00;102353.94;7392328;19;20134;-42
2023/03/02 03:19:44;;;;;;;47.63;8.75;;;;;;;-1.59;100.00;102349.22;7393370;19;20166;-42
2023/03/02 03:22:15;;;;;;;23.70;8.50;;;;;;;-1.53;100.00;102344.00;7393072;19;20129;-43
2023/03/02 03:24:46;;;;;;;19.75;8.18;;;;;;;-1.51;100.00;102351.03;7395551;19;20131;-42
2023/03/02 03:27:18;;;;;;;20.75;8.13;;;;;;;-1.53;100.00;102351.59;7391132;19;20210;-41
2023/03/02 03:29:49;;;;;;;33.65;8.98;;;;;;;-1.58;100.00;102343.47;7397730;19;20150;-44
2023/03/02 03:32:19;;;;;;;29.80;8.50;;;;;;;-1.53;100.00;102344.00;7391820;19;20265;-40
2023/03/02 03:34:49;;;;;;;42.00;9.27;;;;;;;-1.59;100.00;102351.75;7396066;19;20127;-41
2023/03/02 03:37:20;;;;;;;20.45;7.97;;;;;;;-1.69;100.00;102343.84;7389499;19;21093;-45
2023/03/02 03:39:50;;;;;;;17.17;7.80;;;;;;;-1.63;100.00;102344.56;7399558;19;20146;-41
2023/03/02 03:42:22;;;;;;;63.67;11.32;;;;;;;-1.42;100.00;102340.16;7392674;19;20194;-41
2023/03/02 03:44:52;;;;;;;14.40;7.05;;;;;;;-1.44;100.00;102334.91;7394938;19;20515;-42
2023/03/02 03:47:21;;;;;;;22.27;9.38;;;;;;;-1.46;100.00;102343.06;7391541;19;20198;-43
2023/03/02 03:49:51;;;;;;;27.33;10.90;;;;;;;-1.43;100.00;102343.41;7394922;19;20146;-42
2023/03/02 03:52:29;;;;;;;28.58;10.05;;;;;;;-1.40;100.00;102341.22;7390916;19;20530;-44
2023/03/02 03:54:59;;;;;;;22.85;8.90;;;;;;;-1.48;100.00;102345.44;7390277;19;20140;-43
2023/03/02 03:57:31;;;;;;;20.65;9.13;;;;;;;-1.45;100.00;102350.84;7394627;19;20546;-43
2023/03/02 04:00:01;;;;;;;30.30;8.88;;;;;;;-1.48;100.00;102352.09;7394238;19;20134;-45
2023/03/02 04:02:31;;;;;;;21.75;8.55;;;;;;;-1.47;100.00;102351.38;7391220;19;20193;-44
2023/03/02 04:05:05;;;;;;;43.45;9.63;;;;;;;-1.46;100.00;102349.03;7395113;19;20127;-46
2023/03/02 04:07:35;;;;;;;21.55;8.70;;;;;;;-1.46;100.00;102359.16;7390191;19;20546;-43
2023/03/02 04:10:05;;;;;;;24.77;10.50;;;;;;;-1.44;100.00;102352.63;7393609;19;20123;-40
2023/03/02 04:12:39;;;;;;;19.52;8.52;;;;;;;-1.47;100.00;102353.91;7389421;19;21051;-41
2023/03/02 04:15:12;;;;;;;33.95;12.13;;;;;;;-1.57;100.00;102352.84;7393417;19;20133;-42
2023/03/02 04:17:42;;;;;;;20.00;8.98;;;;;;;-1.59;100.00;102348.34;7390158;19;20204;-42
2023/03/02 04:20:14;;;;;;;18.10;7.90;;;;;;;-1.71;100.00;102345.25;7393454;19;20131;-43
2023/03/02 04:22:45;;;;;;;25.55;7.82;;;;;;;-1.78;100.00;102357.19;7390594;19;20201;-40
2023/03/02 04:25:18;;;;;;;18.67;7.20;;;;;;;-1.72;100.00;102356.13;7393589;19;20144;-40
2023/03/02 04:27:52;;;;;;;18.20;7.95;;;;;;;-1.75;100.00;102354.13;7388397;19;20603;-41
2023/03/02 04:30:26;;;;;;;27.77;7.68;;;;;;;-1.80;100.00;102356.13;7392679;19;20136;-44
2023/03/02 04:32:56;;;;;;;23.75;8.20;;;;;;;-1.81;100.00;102359.38;7387031;19;20608;-42
2023/03/02 04:35:26;;;;;;;16.48;7.45;;;;;;;-1.78;100.00;102356.31;7392873;19;20135;-45
2023/03/02 04:37:56;;;;;;;21.05;8.07;;;;;;;-1.79;100.00;102368.06;7389488;19;20667;-41
2023/03/02 04:40:25;;;;;;;33.30;9.60;;;;;;;-1.84;100.00;102368.25;7393405;19;20142;-45
2023/03/02 04:42:57;;;;;;;20.80;8.25;;;;;;;-1.83;100.00;102370.06;7390326;19;20194;-43
2023/03/02 04:45:27;;;;;;;32.95;9.63;;;;;;;-1.93;100.00;102378.19;7392596;19;20603;-41
2023/03/02 04:47:56;;;;;;;23.00;7.95;;;;;;;-1.83;100.00;102370.97;7388078;19;20222;-41
2023/03/02 04:50:26;;;;;;;25.33;8.80;;;;;;;-1.87;100.00;102372.94;7392312;19;20135;-41
2023/03/02 04:52:55;;;;;;;48.13;9.93;;;;;;;-1.97;100.00;102379.44;7388391;19;20190;-45
2023/03/02 04:55:26;;;;;;;30.42;8.52;;;;;;;-1.92;100.00;102370.78;7392885;19;20178;-41
2023/03/02 04:57:58;;;;;;;36.38;11.63;;;;;;;-1.78;100.00;102374.03;7387606;19;20196;-44
2023/03/02 05:00:28;;;;;;;22.58;7.97;;;;;;;-1.89;100.00;102375.31;7392376;19;20163;-41
2023/03/02 05:02:57;;;;;;;30.45;8.75;;;;;;;-1.97;100.00;102376.00;7390807;19;20271;-44
2023/03/02 05:05:27;;;;;;;23.23;8.98;;;;;;;-1.97;100.00;102378.53;7392405;19;20127;-42
2023/03/02 05:07:57;;;;;;;30.17;9.05;;;;;;;-1.99;100.00;102378.38;7388355;19;20190;-42
2023/03/02 05:10:28;;;;;;;27.05;9.48;;;;;;;-1.90;100.00;102378.53;7391739;19;20621;-41
2023/03/02 05:13:01;;;;;;;26.23;9.50;;;;;;;-1.89;100.00;102377.84;7388730;19;20212;-40
2023/03/02 05:15:32;;;;;;;33.85;9.15;;;;;;;-1.91;100.00;102385.25;7391757;19;20619;-42
2023/03/02 05:18:02;;;;;;;22.70;9.05;;;;;;;-1.83;100.00;102378.56;7388107;19;20205;-42
2023/03/02 05:20:33;;;;;;;18.23;8.65;;;;;;;-1.92;100.00;102377.47;7391268;19;20127;-42
2023/03/02 05:23:04;;;;;;;23.67;9.60;;;;;;;-1.89;100.00;102375.31;7388477;19;20193;-43
2023/03/02 05:25:35;;;;;;;24.27;9.90;;;;;;;-1.83;100.00;102376.03;7395942;19;20510;-43
2023/03/02 05:28:07;;;;;;;20.88;9.20;;;;;;;-1.83;100.00;102381.09;7386590;19;20621;-44
2023/03/02 05:30:37;;;;;;;21.05;9.23;;;;;;;-1.83;100.00;102381.09;7391487;19;20138;-42
2023/03/02 05:33:06;;;;;;;20.10;8.68;;;;;;;-1.81;100.00;102379.63;7388825;19;20197;-43
2023/03/02 05:35:36;;;;;;;78.07;27.77;;;;;;;-1.63;100.00;102380.00;7391480;19;20501;-42
2023/03/02 05:38:06;;;;;;;53.88;22.10;;;;;;;-1.33;100.00;102371.63;7387736;19;20205;-42
2023/03/02 05:40:35;;;;;;;58.33;22.27;;;;;;;-1.25;100.00;102380.09;7390999;19;20146;-44
2023/03/02 05:43:08;;;;;;;38.88;11.02;;;;;;;-1.31;100.00;102380.28;7388502;19;20205;-41
2023/03/02 05:45:39;;;;;;;25.10;9.27;;;;;;;-1.45;100.00;102371.09;7391569;19;20131;-42
2023/03/02 05:48:09;;;;;;;60.97;12.30;;;;;;;-1.64;100.00;102366.41;7387506;19;20225;-40
2023/03/02 05:50:38;;;;;;;48.40;10.00;;;;;;;-1.67;100.00;102362.63;7390685;19;20510;-41
2023/03/02 05:53:08;;;;;;;42.80;16.13;;;;;;;-1.43;100.00;102359.50;7388097;19;20215;-43
2023/03/02 05:55:38;;;;;;;101.35;40.35;;;;;;;-0.07;100.00;102356.84;7390954;19;20133;-44
2023/03/02 05:58:14;;;;;;;61.60;23.67;;;;;;;1.00;100.00;102359.78;7387407;19;20213;-42
2023/03/02 06:00:44;;;;;;;74.05;28.23;;;;;;;1.07;100.00;102346.97;7390292;19;20130;-40
2023/03/02 06:03:13;;;;;;;90.87;37.73;;;;;;;1.63;100.00;102347.69;7386447;19;20194;-42
2023/03/02 06:05:43;;;;;;;80.60;37.70;;;;;;;1.53;100.00;102345.81;7389451;19;20423;-43
2023/03/02 06:08:12;;;;;;;69.17;30.83;;;;;;;1.36;100.00;102351.69;7386006;19;20401;-42
2023/03/02 06:10:42;;;;;;;75.40;34.20;;;;;;;1.65;100.00;102360.56;7394371;19;20930;-42
2023/03/02 06:13:14;;;;;;;39.57;18.33;;;;;;;1.16;100.00;102381.03;7394504;19;20419;-40
2023/03/02 06:15:44;;;;;;;44.57;18.80;;;;;;;1.52;100.00;102394.00;7398348;19;20918;-41
2023/03/02 06:18:13;;;;;;;28.73;12.70;;;;;;;1.60;100.00;102418.63;7394107;19;20454;-43
2023/03/02 06:20:43;;;;;;;91.53;42.97;;;;;;;1.32;100.00;102433.50;7397925;19;20379;-41
2023/03/02 06:23:13;;;;;;;49.97;24.27;;;;;;;1.07;100.00;102454.69;7395206;19;20466;-42
2023/03/02 06:25:47;;;;;;;40.60;20.10;;;;;;;0.61;100.00;102465.84;7397595;19;20587;-41
2023/03/02 06:28:20;;;;;;;62.33;29.53;;;;;;;0.02;100.00;102473.72;7391931;19;20429;-41
2023/03/02 06:30:51;;;;;;;40.70;19.80;;;;;;;0.01;100.00;102483.00;7397922;19;20447;-43
2023/03/02 06:33:21;;;;;;;27.47;11.77;;;;;;;-0.19;100.00;102486.72;7392110;19;20427;-40
2023/03/02 06:35:50;;;;;;;27.97;10.63;;;;;;;-0.49;100.00;102492.66;7396813;19;20402;-41
2023/03/02 06:38:20;;;;;;;38.35;17.63;;;;;;;-0.27;100.00;102492.53;7392059;19;20504;-41
2023/03/02 06:40:50;;;;;;;26.10;9.00;;;;;;;-0.47;100.00;102497.91;7397026;19;20127;-42
2023/03/02 06:43:22;;;;;;;25.30;11.32;;;;;;;-0.15;100.00;102491.41;7393269;19;20206;-43
2023/03/02 06:45:52;;;;;;;26.38;12.32;;;;;;;0.02;100.00;102487.34;7396751;19;20143;-43
2023/03/02 06:48:21;;;;;;;34.13;14.48;;;;;;;-0.28;100.00;102488.22;7386892;19;20569;-42
2023/03/02 06:50:51;;;;;;;22.70;10.55;;;;;;;-0.23;100.00;102491.25;7396231;19;20164;-44
2023/03/02 06:53:22;;;;;;;26.17;12.20;;;;;;;-0.37;100.00;102488.06;7391835;19;20861;-42
2023/03/02 06:55:51;;;;;;;18.90;9.45;;;;;;;-0.53;100.00;102490.50;7395921;19;20518;-42
2023/03/02 06:58:23;;;;;;;34.65;14.95;;;;;;;-0.68;100.00;102484.56;7391587;19;20560;-45
2023/03/02 07:00:53;;;;;;;35.28;12.88;;;;;;;-0.54;100.00;102473.47;7396138;19;20497;-44
2023/03/02 07:03:22;;;;;;;38.58;15.73;;;;;;;-0.26;100.00;102463.91;7389761;19;20805;-44
2023/03/02 07:05:52;;;;;;;53.90;21.45;;;;;;;0.71;100.00;102456.69;7399316;19;20131;-43
2023/03/02 07:08:22;;;;;;;53.60;23.43;;;;;;;1.40;100.00;102450.50;7390525;19;20202;-43
2023/03/02 07:10:51;;;;;;;56.33;25.93;;;;;;;2.12;100.00;102456.25;7395694;19;20384;-46
2023/03/02 07:13:23;;;;;;;73.17;27.40;;;;;;;1.59;100.00;102472.81;7391599;19;20536;-46
2023/03/02 07:15:53;;;;;;;42.60;19.40;;;;;;;0.80;100.00;102488.19;7396181;19;20383;-42
2023/03/02 07:18:23;;;;;;;17.87;7.80;;;;;;;0.01;100.00;102503.31;7391466;19;20422;-41
2023/03/02 07:20:52;;;;;;;23.80;8.70;;;;;;;-0.49;100.00;102502.81;7394268;19;20374;-43
2023/03/02 07:23:22;;;;;;;23.13;9.40;;;;;;;-0.74;100.00;102502.50;7392352;19;20434;-45
2023/03/02 07:25:51;;;;;;;17.90;8.20;;;;;;;-0.88;100.00;102495.84;7397044;19;20371;-41
2023/03/02 07:28:24;;;;;;;20.60;8.40;;;;;;;-0.87;100.00;102497.66;7389925;19;20458;-40
2023/03/02 07:30:53;;;;;;;23.27;8.60;;;;;;;-0.92;100.00;102487.72;7395204;19;20355;-42
2023/03/02 07:33:23;;;;;;;18.48;8.60;;;;;;;-0.97;100.00;102488.06;7390763;19;20555;-41
2023/03/02 07:35:53;;;;;;;25.15;9.70;;;;;;;-1.11;100.00;102480.50;7394912;19;20135;-47
2023/03/02 07:38:22;;;;;;;21.53;9.40;;;;;;;-1.13;100.00;102470.19;7390792;19;20908;-49
2023/03/02 07:40:52;;;;;;;20.98;9.25;;;;;;;-1.11;100.00;102470.38;7395427;19;20398;-46
2023/03/02 07:43:27;;;;;;;19.17;8.87;;;;;;;-1.12;100.00;102460.97;7391973;19;20190;-43
2023/03/02 07:45:57;;;;;;;20.25;9.00;;;;;;;-1.12;100.00;102459.31;7395709;19;20379;-43
2023/03/02 07:48:28;;;;;;;23.38;9.15;;;;;;;-1.27;100.00;102447.41;7390844;19;20209;-42
2023/03/02 07:50:59;;;;;;;24.73;10.27;;;;;;;-1.18;100.00;102447.59;7394601;19;20127;-44
2023/03/02 07:53:29;;;;;;;19.52;8.68;;;;;;;-1.08;100.00;102435.22;7390473;19;20189;-42
2023/03/02 07:56:00;;;;;;;21.60;8.73;;;;;;;-1.00;100.00;102434.50;7394064;19;20127;-43
2023/03/02 07:58:32;;;;;;;24.20;8.95;;;;;;;-1.13;100.00;102427.09;7389410;19;20820;-41
2023/03/02 08:01:03;;;;;;;20.50;9.18;;;;;;;-1.12;100.00;102422.97;7394196;19;20922;-41
2023/03/02 08:03:33;;;;;;;25.13;9.40;;;;;;;-1.11;100.00;102417.16;7390987;19;20198;-42
2023/03/02 08:06:06;;;;;;;22.60;8.85;;;;;;;-1.13;100.00;102401.78;7393637;19;20134;-41
2023/03/02 08:08:36;;;;;;;28.85;11.20;;;;;;;-1.05;100.00;102406.81;7388988;19;20757;-42
2023/03/02 08:11:06;;;;;;;21.95;8.15;;;;;;;-1.08;100.00;102394.69;7393945;19;20130;-44
2023/03/02 08:13:38;;;;;;;20.15;9.13;;;;;;;-0.98;100.00;102386.50;7390128;19;20753;-43
2023/03/02 08:16:10;;;;;;;24.25;10.05;;;;;;;-0.93;100.00;102385.41;7393521;19;20130;-44
2023/03/02 08:18:44;;;;;;;22.38;9.30;;;;;;;-0.91;100.00;102385.59;7389704;19;20204;-42
2023/03/02 08:21:15;;;;;;;31.35;13.40;;;;;;;-0.86;100.00;102376.91;7393559;19;20123;-42
2023/03/02 08:23:45;;;;;;;21.90;9.35;;;;;;;-0.99;100.00;102374.56;7390371;19;20729;-44
2023/03/02 08:26:15;;;;;;;29.98;11.88;;;;;;;-0.83;100.00;102367.09;7393228;19;20506;-42
2023/03/02 08:28:49;;;;;;;23.58;9.15;;;;;;;-0.93;100.00;102359.19;7388253;19;20207;-46
2023/03/02 08:31:18;;;;;;;27.60;10.50;;;;;;;-0.77;100.00;102352.56;7392863;19;20147;-43
2023/03/02 08:33:48;;;;;;;22.17;7.68;;;;;;;-0.82;100.00;102346.13;7386312;19;20193;-42
2023/03/02 08:36:19;;;;;;;28.02;8.85;;;;;;;-0.78;100.00;102345.72;7392073;19;20141;-41
2023/03/02 08:38:49;;;;;;;25.15;9.82;;;;;;;-0.70;100.00;102344.03;7389145;19;20204;-43
2023/03/02 08:41:21;;;;;;;24.20;8.68;;;;;;;-0.34;100.00;102345.44;7392535;19;20599;-42
2023/03/02 08:43:54;;;;;;;24.10;9.13;;;;;;;-0.57;100.00;102341.25;7387038;19;20198;-43
2023/03/02 08:46:24;;;;;;;22.05;9.27;;;;;;;-0.57;100.00;102336.16;7395618;19;20158;-40
2023/03/02 08:48:53;;;;;;;36.35;12.43;;;;;;;-0.60;100.00;102331.69;7390471;19;20205;-43
2023/03/02 08:51:25;;;;;;;22.08;9.27;;;;;;;-0.86;100.00;102323.66;7396032;19;20135;-39
2023/03/02 08:53:56;;;;;;;19.80;8.95;;;;;;;-0.90;100.00;102319.88;7391849;19;20190;-39
2023/03/02 08:56:27;;;;;;;42.70;15.90;;;;;;;-0.99;100.00;102328.97;7394492;19;20158;-41
2023/03/02 08:59:00;;;;;;;27.73;9.63;;;;;;;-0.92;100.00;102316.25;7390706;19;20565;-44
2023/03/02 09:01:31;;;;;;;20.90;9.10;;;;;;;-0.84;100.00;102319.66;7393629;19;20142;-42
2023/03/02 09:04:02;;;;;;;21.08;8.90;;;;;;;-0.86;100.00;102306.81;7391307;19;20190;-45
2023/03/02 09:06:33;;;;;;;22.52;8.95;;;;;;;-0.78;100.00;102300.06;7393494;19;20206;-43
2023/03/02 09:09:03;;;;;;;24.35;9.80;;;;;;;-0.64;100.00;102299.09;7390272;19;20575;-41
2023/03/02 09:11:32;;;;;;;17.13;7.85;;;;;;;-0.63;100.00;102294.91;7393017;19;20142;-44
2023/03/02 09:14:05;;;;;;;25.73;9.10;;;;;;;-0.64;100.00;102295.66;7390945;19;20608;-49
2023/03/02 09:16:34;;;;;;;18.60;9.10;;;;;;;-0.63;100.00;102293.28;7393289;19;20157;-41
2023/03/02 09:19:04;;;;;;;23.80;10.45;;;;;;;-0.64;100.00;102294.03;7389994;19;20202;-41
2023/03/02 09:21:33;;;;;;;19.85;8.65;;;;;;;-0.61;100.00;102296.00;7393548;19;20166;-42
2023/03/02 09:24:03;;;;;;;20.88;10.30;;;;;;;-0.59;100.00;102310.66;7391358;19;20669;-42
2023/03/02 09:26:33;;;;;;;26.08;10.05;;;;;;;-0.58;100.00;102303.94;7393251;19;20476;-42
2023/03/02 09:29:06;;;;;;;19.42;8.77;;;;;;;-0.55;100.00;102306.84;7387822;19;20298;-41
2023/03/02 09:31:36;;;;;;;31.67;9.52;;;;;;;-0.63;100.00;102310.13;7394555;19;20150;-41
2023/03/02 09:34:06;;;;;;;17.63;8.40;;;;;;;-0.61;100.00;102308.69;7390928;19;20658;-50
2023/03/02 09:36:36;;;;;;;24.65;9.88;;;;;;;-0.57;100.00;102305.75;7389716;19;20376;-44
2023/03/02 09:39:11;;;;;;;50.33;22.73;;;;;;;1.69;100.00;102281.25;7385511;19;20207;-44
2023/03/02 09:42:07;;;;;;;41.33;19.90;;;;;;;2.08;100.00;102269.84;7394099;19;20122;-46
2023/03/02 09:44:53;;;;;;;38.53;14.70;;;;;;;2.67;100.00;102265.47;7388964;19;20439;-42
2023/03/02 09:47:26;;;;;;;51.60;22.53;;;;;;;2.46;100.00;102277.88;7386711;19;20962;-42
2023/03/02 09:50:12;;;;;;;65.53;30.60;;;;;;;3.05;100.00;102301.44;7390581;19;20398;-42
2023/03/02 09:52:50;;;;;;;30.60;14.63;;;;;;;2.47;100.00;102330.66;7387016;19;20959;-46
2023/03/02 09:55:21;;;;;;;58.80;27.73;;;;;;;1.86;100.00;102357.69;7393348;19;20411;-42
2023/03/02 09:57:53;;;;;;;48.80;23.83;;;;;;;1.72;100.00;102374.09;7386216;19;20407;-42
2023/03/02 10:00:30;;;;;;;15.43;8.13;;;;;;;1.00;100.00;102386.13;7390293;19;20404;-44
2023/03/02 10:03:01;;;;;;;44.37;17.90;;;;;;;0.57;100.00;102392.59;7387435;19;21092;-47
2023/03/02 10:05:46;;;;;;;38.13;15.93;;;;;;;0.77;100.00;102393.84;7390648;19;20771;-44
2023/03/02 10:08:19;;;;;;;38.87;16.83;;;;;;;0.50;100.00;102400.25;7386250;19;20419;-42
2023/03/02 10:10:54;;;;;;;19.43;8.10;;;;;;;0.26;100.00;102395.19;7390179;19;20430;-43
2023/03/02 10:13:27;;;;;;;31.27;14.10;;;;;;;0.91;100.00;102387.66;7386269;19;20516;-42
2023/03/02 10:16:08;;;;;;;29.00;14.40;;;;;;;1.14;100.00;102384.16;7387745;19;20951;-44
2023/03/02 10:18:40;;;;;;;43.67;18.50;;;;;;;1.34;100.00;102387.16;7384689;19;20430;-44
2023/03/02 10:21:20;;;;;;;32.93;13.80;;;;;;;1.24;100.00;102389.47;7388783;19;20395;-43
2023/03/02 10:23:56;;;;;;;34.10;14.80;;;;;;;1.37;100.00;102378.94;7386128;19;20415;-43
2023/03/02 10:26:33;;;;;;;26.03;10.53;;;;;;;1.04;100.00;102393.31;7389160;19;20391;-42
2023/03/02 10:29:23;;;;;;;19.97;9.70;;;;;;;0.66;100.00;102403.72;7382914;19;20419;-46
2023/03/02 10:31:59;;;;;;;41.00;16.90;;;;;;;0.87;100.00;102399.16;7388722;19;20391;-43
2023/03/02 10:34:32;;;;;;;19.47;9.77;;;;;;;0.70;100.00;102409.13;7387310;19;20415;-44
2023/03/02 10:37:02;;;;;;;21.80;10.40;;;;;;;0.55;100.00;102404.19;7386245;19;20962;-45
2023/03/02 10:39:31;;;;;;;22.30;10.13;;;;;;;0.49;100.00;102414.59;7386104;19;20416;-45
2023/03/02 10:42:05;;;;;;;22.23;9.57;;;;;;;0.65;100.00;102406.09;7386229;19;20395;-43
2023/03/02 10:44:38;;;;;;;23.23;9.47;;;;;;;0.97;100.00;102389.97;7387463;19;20391;-41
2023/03/02 10:47:21;;;;;;;21.50;9.13;;;;;;;1.22;100.00;102393.47;7385582;19;20380;-44
2023/03/02 10:49:50;;;;;;;21.10;9.00;;;;;;;0.98;100.00;102386.69;7386463;19;20430;-42
2023/03/02 10:52:21;;;;;;;35.40;14.43;;;;;;;1.02;100.00;102379.56;7385694;19;21060;-45
2023/03/02 10:54:51;;;;;;;24.87;10.20;;;;;;;1.04;100.00;102382.28;7387919;19;20379;-42
2023/03/02 10:57:31;;;;;;;34.97;11.93;;;;;;;1.28;100.00;102372.91;7390475;19;20394;-44
2023/03/02 11:00:03;;;;;;;16.13;7.17;;;;;;;0.87;100.00;102378.81;7395636;19;20383;-48
2023/03/02 11:02:37;;;;;;;18.30;8.90;;;;;;;0.74;100.00;102376.63;7392542;19;20406;-44
2023/03/02 11:05:40;;;;;;;16.73;7.05;;;;;;;1.18;100.00;102366.81;7395067;19;20410;-49
2023/03/02 11:08:11;;;;;;;21.27;10.50;;;;;;;1.10;100.00;102370.22;7391211;19;20225;-45
2023/03/02 11:10:42;;;;;;;20.47;9.50;;;;;;;1.24;100.00;102363.13;7399582;19;20427;-44
2023/03/02 11:13:19;;;;;;;16.87;7.20;;;;;;;1.33;100.00;102359.91;7391923;19;20402;-44
2023/03/02 11:15:50;;;;;;;20.17;9.13;;;;;;;1.00;100.00;102364.88;7393658;19;20378;-44
2023/03/02 11:18:28;;;;;;;46.40;15.23;;;;;;;1.21;100.00;102367.16;7390467;19;20426;-45
2023/03/02 11:21:01;;;;;;;15.90;7.20;;;;;;;1.28;100.00;102361.06;7394945;19;20747;-44
2023/03/02 11:23:42;;;;;;;14.60;6.70;;;;;;;1.17;100.00;102362.47;7391817;19;20415;-43
2023/03/02 11:26:17;;;;;;;14.13;6.10;;;;;;;1.12;100.00;102356.00;7394781;19;20370;-46
2023/03/02 11:28:50;;;;;;;20.50;7.60;;;;;;;0.97;100.00;102355.28;7388012;19;20976;-45